Georgios Georgoulis — SX4083 — position and weather

sailwx.info

Track history (hours):
 
Tides and Currents Weather Stations Pressure Air Temp Water Temp Dewpoint Dewpoint Depression Visibility Wind Speed Wind Dir Waves Ship Positions

Georgios Georgoulis

Last reported at 2017-Dec-21 03:48 UTC. Time now 2018-Feb-21 09:46 UTC.
Position N 37°13' E 026°38'.
Warning: this ship's position is months out of date.

Length 18 m.

Type: Fishing. MMSI: 240254000.

Date/timePositionNaut miles runAvg speedWind from/ knotsBaromVisibWave heightAir tempDewpointWater temp
2017-Dec-21 03:48N 37°13' E 026°38'1 1.9
2017-Dec-21 03:31N 37°13' E 026°38'4 7.0
2017-Dec-21 03:00N 37°11' E 026°42'4 6.7
2017-Dec-21 02:22N 37°08' E 026°46'  
2017-Dec-12 18:33N 36°10' E 026°30'0 7.1
2017-Dec-12 18:31N 36°11' E 026°30'2 4.4
2017-Dec-12 18:00N 36°13' E 026°31'0 0.3
2017-Dec-12 17:30N 36°13' E 026°31'0 0.3
2017-Dec-12 17:00N 36°13' E 026°31'0 0.3
2017-Dec-12 16:31N 36°13' E 026°31'1 2.4
2017-Dec-12 16:00N 36°14' E 026°31'37 1.5
2017-Dec-11 15:12N 36°50' E 026°19'1 6.6
2017-Dec-11 15:00N 36°51' E 026°20'  
Track history (hours):
 
Tides and Currents Weather Stations Pressure Air Temp Water Temp Dewpoint Dewpoint Depression Visibility Wind Speed Wind Dir Waves Ship Positions

Georgios Georgoulis

Last reported at 2017-Dec-21 03:48 UTC. Time now 2018-Feb-21 09:46 UTC.
Position N 37°13' E 026°38'.
Warning: this ship's position is months out of date.

Length 18 m.

Type: Fishing. MMSI: 240254000.

Date/timePositionNaut miles runAvg speedWind from/ knotsBaromVisibWave heightAir tempDewpointWater temp
2017-Dec-21 03:48N 37°13' E 026°38'1 1.9
2017-Dec-21 03:31N 37°13' E 026°38'4 7.0
2017-Dec-21 03:00N 37°11' E 026°42'4 6.7
2017-Dec-21 02:22N 37°08' E 026°46'  
2017-Dec-12 18:33N 36°10' E 026°30'0 7.1
2017-Dec-12 18:31N 36°11' E 026°30'2 4.4
2017-Dec-12 18:00N 36°13' E 026°31'0 0.3
2017-Dec-12 17:30N 36°13' E 026°31'0 0.3
2017-Dec-12 17:00N 36°13' E 026°31'0 0.3
2017-Dec-12 16:31N 36°13' E 026°31'1 2.4
2017-Dec-12 16:00N 36°14' E 026°31'37 1.5
2017-Dec-11 15:12N 36°50' E 026°19'1 6.6
2017-Dec-11 15:00N 36°51' E 026°20'  

Dump ship's entire track history